createdAt,value
2023-04-21T00:01:14.776Z,12.30
2023-04-21T00:03:44.925Z,14.00
2023-04-21T00:06:13.553Z,12.87
2023-04-21T00:08:42.386Z,9.33
2023-04-21T00:11:11.316Z,11.10
2023-04-21T00:13:39.740Z,13.07
2023-04-21T00:16:08.708Z,10.87
2023-04-21T00:18:37.341Z,9.23
2023-04-21T00:21:07.564Z,12.30
2023-04-21T00:23:36.009Z,11.30
2023-04-21T00:26:04.615Z,9.77
2023-04-21T00:28:33.113Z,11.53
2023-04-21T00:31:04.641Z,8.43
2023-04-21T00:33:33.115Z,9.90
2023-04-21T00:36:01.654Z,8.27
2023-04-21T00:38:31.679Z,9.80
2023-04-21T00:41:00.122Z,12.37
2023-04-21T00:43:28.897Z,10.70
2023-04-21T00:45:57.305Z,12.17
2023-04-21T00:48:28.368Z,11.90
2023-04-21T00:50:56.813Z,12.70
2023-04-21T00:53:25.236Z,7.93
2023-04-21T00:55:55.139Z,10.07
2023-04-21T00:58:23.836Z,12.40
2023-04-21T01:00:52.209Z,12.63
2023-04-21T01:03:21.081Z,10.80
2023-04-21T01:05:49.896Z,15.20
2023-04-21T01:08:19.995Z,13.50
2023-04-21T01:10:48.437Z,10.27
2023-04-21T01:13:22.079Z,16.73
2023-04-21T01:15:50.751Z,13.63
2023-04-21T01:18:19.572Z,10.70
2023-04-21T01:20:49.989Z,13.20
2023-04-21T01:23:21.124Z,16.77
2023-04-21T01:25:49.572Z,13.07
2023-04-21T01:28:23.241Z,10.90
2023-04-21T01:30:51.893Z,12.53
2023-04-21T01:33:21.617Z,11.97
2023-04-21T01:35:50.145Z,16.47
2023-04-21T01:38:20.297Z,11.17
2023-04-21T01:40:50.042Z,14.13
2023-04-21T01:43:19.451Z,8.97
2023-04-21T01:45:48.966Z,12.83
2023-04-21T01:48:17.777Z,11.70
2023-04-21T01:50:46.344Z,10.40
2023-04-21T01:53:15.002Z,9.87
2023-04-21T01:55:45.150Z,18.97
2023-04-21T01:58:13.731Z,11.93
2023-04-21T02:00:42.379Z,11.20
2023-04-21T02:03:11.030Z,8.33
2023-04-21T02:05:39.722Z,10.00
2023-04-21T02:08:08.824Z,12.30
2023-04-21T02:10:37.185Z,14.90
2023-04-21T02:13:07.182Z,10.27
2023-04-21T02:15:35.702Z,8.60
2023-04-21T02:18:04.242Z,6.20
2023-04-21T02:20:33.058Z,9.90
2023-04-21T02:23:01.449Z,7.10
2023-04-21T02:25:30.857Z,10.27
2023-04-21T02:27:59.353Z,6.47
2023-04-21T02:30:31.680Z,11.80
2023-04-21T02:33:00.300Z,8.47
2023-04-21T02:35:28.641Z,8.80
2023-04-21T02:37:56.999Z,9.10
2023-04-21T02:40:25.713Z,7.87
2023-04-21T02:42:54.303Z,10.93
2023-04-21T02:45:22.704Z,8.23
2023-04-21T02:47:52.506Z,7.97
2023-04-21T02:50:20.929Z,11.20
2023-04-21T02:52:49.609Z,10.60
2023-04-21T02:55:17.982Z,14.53
2023-04-21T02:57:46.429Z,8.57
2023-04-21T03:00:15.264Z,18.03
2023-04-21T03:02:44.375Z,10.40
2023-04-21T03:05:14.337Z,7.83
2023-04-21T03:07:42.782Z,12.40
2023-04-21T03:10:11.272Z,11.20
2023-04-21T03:12:39.628Z,8.80
2023-04-21T03:15:08.750Z,11.30
2023-04-21T03:17:37.437Z,12.83
2023-04-21T03:20:08.065Z,11.87
2023-04-21T03:22:37.863Z,12.77
2023-04-21T03:25:07.448Z,8.97
2023-04-21T03:27:36.190Z,11.07
2023-04-21T03:30:04.621Z,10.93
2023-04-21T03:32:33.050Z,10.30
2023-04-21T03:35:01.569Z,9.03
2023-04-21T03:37:29.973Z,13.50
2023-04-21T03:40:01.343Z,8.40
2023-04-21T03:42:30.279Z,14.13
2023-04-21T03:44:58.718Z,8.70
2023-04-21T03:47:27.148Z,13.90
2023-04-21T03:49:55.690Z,11.13
2023-04-21T03:52:24.307Z,11.03
2023-04-21T03:54:53.738Z,13.10
2023-04-21T03:57:23.757Z,12.20
2023-04-21T03:59:52.165Z,11.40
2023-04-21T04:02:20.824Z,12.20
2023-04-21T04:04:49.732Z,11.80
2023-04-21T04:07:18.630Z,14.40
2023-04-21T04:09:47.262Z,11.10
2023-04-21T04:12:23.919Z,13.57
2023-04-21T04:14:52.429Z,10.03
2023-04-21T04:17:20.779Z,14.73
2023-04-21T04:19:53.434Z,11.23
2023-04-21T04:22:21.807Z,9.07
2023-04-21T04:24:51.451Z,8.53
2023-04-21T04:27:20.461Z,13.30
2023-04-21T04:29:54.361Z,11.10
2023-04-21T04:32:22.898Z,13.10
2023-04-21T04:34:52.386Z,8.30
2023-04-21T04:37:21.871Z,12.63
2023-04-21T04:39:50.813Z,13.00
2023-04-21T04:42:20.252Z,8.83
2023-04-21T04:44:48.992Z,12.13
2023-04-21T04:47:18.921Z,6.80
2023-04-21T04:49:47.559Z,8.23
2023-04-21T04:52:16.159Z,12.80
2023-04-21T04:54:44.601Z,10.53
2023-04-21T04:57:12.982Z,7.90
2023-04-21T04:59:42.007Z,9.73
2023-04-21T05:02:11.769Z,11.50
2023-04-21T05:04:41.928Z,11.40
2023-04-21T05:07:10.477Z,10.90
2023-04-21T05:09:38.900Z,11.60
2023-04-21T05:12:07.736Z,14.20
2023-04-21T05:14:36.158Z,9.30
2023-04-21T05:17:04.858Z,8.23
2023-04-21T05:19:33.336Z,8.83
2023-04-21T05:22:03.141Z,6.83
2023-04-21T05:24:31.732Z,11.73
2023-04-21T05:27:01.131Z,8.50
2023-04-21T05:29:29.929Z,9.43
2023-04-21T05:31:58.868Z,14.07
2023-04-21T05:34:27.618Z,10.43
2023-04-21T05:36:56.008Z,9.17
2023-04-21T05:39:25.822Z,9.27
2023-04-21T05:41:54.261Z,6.47
2023-04-21T05:44:22.883Z,8.47
2023-04-21T05:46:51.448Z,9.73
2023-04-21T05:49:20.090Z,12.30
2023-04-21T05:51:48.497Z,6.17
2023-04-21T05:54:17.303Z,11.03
2023-04-21T05:56:48.221Z,8.87
2023-04-21T05:59:16.699Z,10.03
2023-04-21T06:01:45.244Z,7.50
2023-04-21T06:04:13.988Z,5.47
2023-04-21T06:06:42.635Z,13.10
2023-04-21T06:09:10.953Z,8.77
2023-04-21T06:11:39.391Z,9.50
2023-04-21T06:14:09.300Z,11.00
2023-04-21T06:16:38.073Z,10.40
2023-04-21T06:19:06.970Z,8.63
2023-04-21T06:21:35.370Z,9.53
2023-04-21T06:24:03.757Z,10.37
2023-04-21T06:26:32.379Z,7.83
2023-04-21T06:29:00.691Z,10.33
2023-04-21T06:31:31.101Z,8.30
2023-04-21T06:33:59.652Z,8.60
2023-04-21T06:36:28.782Z,8.10
2023-04-21T06:38:57.272Z,10.83
2023-04-21T06:41:25.797Z,7.70
2023-04-21T06:43:58.630Z,12.20
2023-04-21T06:46:27.355Z,10.07
2023-04-21T06:48:57.551Z,16.00
2023-04-21T06:51:26.968Z,9.27
2023-04-21T06:53:56.390Z,9.37
2023-04-21T06:56:24.990Z,8.07
2023-04-21T06:58:53.780Z,8.27
2023-04-21T07:01:24.612Z,8.07
2023-04-21T07:03:53.513Z,9.07
2023-04-21T07:06:23.764Z,10.07
2023-04-21T07:08:52.698Z,8.13
2023-04-21T07:11:21.733Z,8.80
2023-04-21T07:13:50.277Z,6.13
2023-04-21T07:16:18.933Z,7.90
2023-04-21T07:18:47.946Z,8.40
2023-04-21T07:21:16.454Z,6.37
2023-04-21T07:23:47.868Z,7.30
2023-04-21T07:26:18.154Z,9.57
2023-04-21T07:28:46.706Z,5.23
2023-04-21T07:31:16.088Z,6.00
2023-04-21T07:33:45.757Z,7.47
2023-04-21T07:36:15.689Z,5.23
2023-04-21T07:38:44.302Z,8.57
2023-04-21T07:41:14.750Z,5.07
2023-04-21T07:43:44.009Z,6.27
2023-04-21T07:46:13.563Z,5.97
2023-04-21T07:48:42.649Z,8.80
2023-04-21T07:51:11.074Z,11.47
2023-04-21T07:53:40.285Z,9.13
2023-04-21T07:56:13.474Z,6.97
2023-04-21T07:58:43.518Z,5.33
2023-04-21T08:01:12.279Z,8.00
2023-04-21T08:03:41.271Z,11.60
2023-04-21T08:06:10.006Z,7.57
2023-04-21T08:08:38.871Z,6.20
2023-04-21T08:11:09.719Z,9.00
2023-04-21T08:13:43.306Z,6.33
2023-04-21T08:16:38.569Z,6.23
2023-04-21T08:19:10.552Z,8.53
2023-04-21T08:21:39.240Z,6.63
2023-04-21T08:24:08.087Z,7.33
2023-04-21T08:26:41.293Z,8.13
2023-04-21T08:29:10.875Z,9.03
2023-04-21T08:31:39.904Z,5.80
2023-04-21T08:34:09.863Z,5.20
2023-04-21T08:36:38.336Z,5.47
2023-04-21T08:39:07.041Z,5.40
2023-04-21T08:41:37.113Z,6.47
2023-04-21T08:44:06.151Z,6.17
2023-04-21T08:46:35.853Z,5.70
2023-04-21T08:49:05.141Z,3.87
2023-04-21T08:51:35.972Z,6.40
2023-04-21T08:54:04.396Z,4.93
2023-04-21T08:56:32.751Z,7.80
2023-04-21T08:59:02.024Z,5.97
2023-04-21T09:01:30.848Z,5.73
2023-04-21T09:04:18.219Z,7.30
2023-04-21T09:06:49.026Z,7.03
2023-04-21T09:09:17.720Z,7.17
2023-04-21T09:11:46.421Z,6.93
2023-04-21T09:14:21.638Z,6.43
2023-04-21T09:17:01.284Z,6.47
2023-04-21T09:19:30.547Z,6.77
2023-04-21T09:22:08.585Z,8.80
2023-04-21T09:24:37.156Z,8.43
2023-04-21T09:27:06.432Z,5.90
2023-04-21T09:29:34.912Z,7.00
2023-04-21T09:32:04.045Z,8.27
2023-04-21T09:34:35.425Z,7.30
2023-04-21T09:37:05.742Z,10.83
2023-04-21T09:39:46.403Z,7.83
2023-04-21T09:42:21.759Z,7.93
2023-04-21T09:44:56.308Z,7.83
2023-04-21T09:47:30.962Z,9.67
2023-04-21T09:50:00.465Z,4.90
2023-04-21T09:52:31.537Z,7.37
2023-04-21T09:55:04.188Z,6.40
2023-04-21T09:57:34.316Z,14.23
2023-04-21T10:00:05.428Z,7.37
2023-04-21T10:02:34.221Z,6.30
2023-04-21T10:05:03.113Z,8.30
2023-04-21T10:07:33.736Z,12.37
2023-04-21T10:10:02.610Z,7.67
2023-04-21T10:12:31.388Z,7.77
2023-04-21T10:15:00.378Z,7.17
2023-04-21T10:17:29.068Z,9.97
2023-04-21T10:20:00.579Z,9.93
2023-04-21T10:22:30.734Z,9.57
2023-04-21T10:25:01.662Z,6.43
2023-04-21T10:27:33.810Z,9.20
2023-04-21T10:30:03.748Z,12.03
2023-04-21T10:32:43.000Z,9.60
2023-04-21T10:35:12.448Z,12.27
2023-04-21T10:37:42.511Z,14.57
2023-04-21T10:40:42.025Z,13.47
2023-04-21T10:43:42.739Z,7.20
2023-04-21T10:46:26.307Z,14.20
2023-04-21T10:48:55.168Z,9.30
2023-04-21T10:51:24.668Z,12.33
2023-04-21T10:53:53.142Z,10.13
2023-04-21T10:56:22.561Z,9.57
2023-04-21T10:58:53.315Z,11.13
2023-04-21T11:01:21.868Z,8.77
2023-04-21T11:03:50.872Z,9.03
2023-04-21T11:06:19.603Z,11.40
2023-04-21T11:08:57.860Z,11.30
2023-04-21T11:11:26.888Z,18.93
2023-04-21T11:13:57.198Z,7.57
2023-04-21T11:16:26.034Z,7.30
2023-04-21T11:18:55.478Z,10.13
2023-04-21T11:21:24.857Z,6.60
2023-04-21T11:23:55.376Z,10.10
2023-04-21T11:26:34.272Z,9.90
2023-04-21T11:29:06.357Z,5.10
2023-04-21T11:31:35.464Z,6.43
2023-04-21T11:34:05.723Z,11.53
2023-04-21T11:36:34.924Z,10.97
2023-04-21T11:39:08.226Z,12.33
2023-04-21T11:41:38.881Z,8.70
2023-04-21T11:44:09.142Z,8.03
2023-04-21T11:46:39.332Z,6.93
2023-04-21T11:49:08.712Z,8.10
2023-04-21T11:51:38.089Z,9.47
2023-04-21T11:54:07.438Z,10.20
2023-04-21T11:56:37.912Z,8.73
2023-04-21T11:59:10.815Z,19.07
2023-04-21T12:01:44.613Z,9.77
2023-04-21T12:04:17.059Z,10.30
2023-04-21T12:06:46.082Z,7.17
2023-04-21T12:09:21.990Z,9.27
2023-04-21T12:11:51.478Z,12.03
2023-04-21T12:14:22.168Z,9.13
2023-04-21T12:16:51.385Z,6.53
2023-04-21T12:19:26.704Z,4.63
2023-04-21T12:22:00.864Z,6.63
2023-04-21T12:24:29.656Z,3.70
2023-04-21T12:26:58.237Z,2.83
2023-04-21T12:29:28.027Z,3.93
2023-04-21T12:31:56.541Z,2.43
2023-04-21T12:34:25.278Z,2.33
2023-04-21T12:36:53.666Z,2.30
2023-04-21T12:39:22.185Z,1.83
2023-04-21T12:41:50.575Z,2.30
2023-04-21T12:44:18.975Z,1.33
2023-04-21T12:46:50.001Z,1.00
2023-04-21T12:49:18.681Z,3.23
2023-04-21T12:51:47.464Z,1.80
2023-04-21T12:54:16.451Z,0.80
2023-04-21T12:56:45.015Z,1.20
2023-04-21T12:59:13.472Z,1.10
2023-04-21T13:01:44.306Z,1.20
2023-04-21T13:04:14.455Z,1.73
2023-04-21T13:06:43.408Z,1.30
2023-04-21T13:09:12.443Z,1.83
2023-04-21T13:11:40.934Z,1.57
2023-04-21T13:14:09.537Z,1.50
2023-04-21T13:16:37.994Z,1.20
2023-04-21T13:19:06.755Z,1.20
2023-04-21T13:21:37.932Z,1.47
2023-04-21T13:24:06.610Z,2.97
2023-04-21T13:26:35.504Z,1.57
2023-04-21T13:29:09.151Z,1.70
2023-04-21T13:31:37.761Z,1.70
2023-04-21T13:34:06.497Z,1.33
2023-04-21T13:36:37.058Z,1.73
2023-04-21T13:39:14.775Z,1.53
2023-04-21T13:41:43.361Z,2.20
2023-04-21T13:44:12.090Z,1.43
2023-04-21T13:46:40.720Z,2.60
2023-04-21T13:49:09.501Z,1.77
2023-04-21T13:51:39.909Z,3.30
2023-04-21T13:54:08.932Z,1.67
2023-04-21T13:56:38.526Z,1.67
2023-04-21T13:59:14.832Z,1.50
2023-04-21T14:01:43.474Z,1.03
2023-04-21T14:04:12.419Z,1.47
2023-04-21T14:06:42.739Z,1.57
2023-04-21T14:09:13.203Z,1.80
2023-04-21T14:11:41.752Z,1.07
2023-04-21T14:14:10.514Z,1.37
2023-04-21T14:16:39.455Z,1.47
2023-04-21T14:19:08.104Z,1.10
2023-04-21T14:21:36.720Z,3.63
2023-04-21T14:24:07.713Z,1.90
2023-04-21T14:26:36.183Z,2.10
2023-04-21T14:29:04.776Z,2.33
2023-04-21T14:31:34.515Z,1.20
2023-04-21T14:34:04.160Z,1.20
2023-04-21T14:36:33.854Z,1.20
2023-04-21T14:39:02.508Z,0.80
2023-04-21T14:41:33.050Z,5.13
2023-04-21T14:44:03.427Z,0.83
2023-04-21T14:46:32.016Z,1.00
2023-04-21T14:49:00.997Z,1.23
2023-04-21T14:51:31.717Z,1.13
2023-04-21T14:54:00.507Z,1.13
2023-04-21T14:56:28.903Z,1.23
2023-04-21T14:58:59.225Z,0.83
2023-04-21T15:01:28.572Z,1.43
2023-04-21T15:03:59.945Z,1.47
2023-04-21T15:06:29.596Z,0.93
2023-04-21T15:08:58.080Z,1.10
2023-04-21T15:11:27.028Z,0.60
2023-04-21T15:13:55.879Z,1.13
2023-04-21T15:16:26.291Z,1.83
2023-04-21T15:18:55.366Z,1.00
2023-04-21T15:21:23.880Z,1.63
2023-04-21T15:23:52.200Z,0.90
2023-04-21T15:26:22.868Z,0.80
2023-04-21T15:28:51.289Z,1.10
2023-04-21T15:31:19.830Z,1.20
2023-04-21T15:33:50.603Z,1.03
2023-04-21T15:36:19.105Z,1.10
2023-04-21T15:38:47.824Z,1.97
2023-04-21T15:41:17.969Z,0.87
2023-04-21T15:43:46.379Z,1.20
2023-04-21T15:46:15.097Z,1.00
2023-04-21T15:48:44.061Z,0.70
2023-04-21T15:51:20.434Z,1.87
2023-04-21T15:53:49.347Z,1.50
2023-04-21T15:56:18.049Z,1.10
2023-04-21T15:58:46.524Z,1.33
2023-04-21T16:01:15.219Z,1.27
2023-04-21T16:03:43.965Z,0.70
2023-04-21T16:06:14.330Z,1.40
2023-04-21T16:08:42.987Z,0.80
2023-04-21T16:11:12.659Z,0.83
2023-04-21T16:13:41.396Z,1.80
2023-04-21T16:16:10.074Z,1.83
2023-04-21T16:18:38.633Z,0.80
2023-04-21T16:21:07.406Z,1.57
2023-04-21T16:23:44.664Z,1.00
2023-04-21T16:26:13.235Z,0.70
2023-04-21T16:28:41.685Z,0.90
2023-04-21T16:31:10.508Z,1.03
2023-04-21T16:33:38.907Z,1.07
2023-04-21T16:36:10.656Z,0.80
2023-04-21T16:38:40.882Z,1.17
2023-04-21T16:41:09.448Z,0.83
2023-04-21T16:43:40.204Z,4.40
2023-04-21T16:46:08.640Z,1.70
2023-04-21T16:48:37.069Z,1.37
2023-04-21T16:51:05.890Z,2.07
2023-04-21T16:53:34.940Z,1.33
2023-04-21T16:56:05.324Z,1.10
2023-04-21T16:58:34.469Z,0.60
2023-04-21T17:01:03.399Z,0.80
2023-04-21T17:03:32.209Z,0.67
2023-04-21T17:06:00.956Z,0.80
2023-04-21T17:08:29.741Z,1.17
2023-04-21T17:11:00.267Z,1.20
2023-04-21T17:13:30.663Z,1.00
2023-04-21T17:15:59.149Z,2.70
2023-04-21T17:18:27.795Z,0.90
2023-04-21T17:20:56.451Z,1.47
2023-04-21T17:23:24.959Z,1.10
2023-04-21T17:25:53.347Z,1.37
2023-04-21T17:28:21.739Z,0.80
2023-04-21T17:30:57.594Z,1.10
2023-04-21T17:33:35.924Z,2.13
2023-04-21T17:36:04.964Z,2.60
2023-04-21T17:38:34.700Z,1.20
2023-04-21T17:41:04.562Z,1.00
2023-04-21T17:43:38.654Z,0.80
2023-04-21T17:46:15.878Z,1.77
2023-04-21T17:48:44.350Z,1.10
2023-04-21T17:51:14.994Z,1.10
2023-04-21T17:53:43.390Z,1.07
2023-04-21T17:56:12.348Z,0.90
2023-04-21T17:58:41.395Z,1.10
2023-04-21T18:01:11.810Z,1.77
2023-04-21T18:03:42.344Z,1.10
2023-04-21T18:06:13.568Z,1.50
2023-04-21T18:08:42.509Z,2.00
2023-04-21T18:11:12.666Z,1.30
2023-04-21T18:13:41.372Z,1.43
2023-04-21T18:16:29.621Z,3.10
2023-04-21T18:19:04.323Z,2.20
2023-04-21T18:21:32.915Z,1.37
2023-04-21T18:24:02.047Z,1.50
2023-04-21T18:26:31.839Z,1.30
2023-04-21T18:29:02.276Z,1.27
2023-04-21T18:31:33.474Z,1.00
2023-04-21T18:34:01.989Z,1.63
2023-04-21T18:36:33.055Z,2.60
2023-04-21T18:39:09.617Z,3.93
2023-04-21T18:41:38.137Z,1.63
2023-04-21T18:44:06.893Z,3.53
2023-04-21T18:46:36.988Z,2.30
2023-04-21T18:49:06.031Z,1.67
2023-04-21T18:51:34.889Z,2.63
2023-04-21T18:54:05.384Z,1.27
2023-04-21T18:56:34.784Z,1.57
2023-04-21T18:59:03.648Z,2.93
2023-04-21T19:01:32.200Z,1.30
2023-04-21T19:04:02.314Z,1.53
2023-04-21T19:06:39.309Z,2.17
2023-04-21T19:09:07.797Z,1.47
2023-04-21T19:11:42.014Z,1.63
2023-04-21T19:14:10.488Z,1.37
2023-04-21T19:16:50.872Z,2.33
2023-04-21T19:19:22.407Z,2.40
2023-04-21T19:22:13.600Z,2.17
2023-04-21T19:24:42.347Z,1.40
2023-04-21T19:27:10.789Z,2.13
2023-04-21T19:29:40.093Z,2.07
2023-04-21T19:32:23.923Z,2.30
2023-04-21T19:34:54.047Z,4.70
2023-04-21T19:37:28.354Z,1.50
2023-04-21T19:39:56.869Z,1.80
2023-04-21T19:42:25.822Z,1.10
2023-04-21T19:44:54.414Z,1.73
2023-04-21T19:47:22.917Z,0.60
2023-04-21T19:49:51.529Z,0.90
2023-04-21T19:52:22.382Z,0.67
2023-04-21T19:55:01.286Z,0.70
2023-04-21T19:57:31.783Z,0.60
2023-04-21T20:00:00.570Z,0.60
2023-04-21T20:02:29.600Z,0.60
2023-04-21T20:05:09.333Z,2.50
2023-04-21T20:07:39.754Z,2.50
2023-04-21T20:10:16.010Z,0.90
2023-04-21T20:12:44.375Z,0.50
2023-04-21T20:15:13.352Z,0.50
2023-04-21T20:17:42.103Z,0.60
2023-04-21T20:20:11.679Z,1.23
2023-04-21T20:22:41.772Z,0.50
2023-04-21T20:25:11.112Z,0.90
2023-04-21T20:27:44.041Z,0.60
2023-04-21T20:30:12.689Z,0.73
2023-04-21T20:32:41.055Z,2.23
2023-04-21T20:35:11.799Z,0.57
2023-04-21T20:37:42.998Z,7.20
2023-04-21T20:40:12.026Z,2.70
2023-04-21T20:42:42.042Z,0.77
2023-04-21T20:45:11.080Z,0.77
2023-04-21T20:47:39.976Z,0.90
2023-04-21T20:50:09.357Z,0.60
2023-04-21T20:52:38.249Z,0.60
2023-04-21T20:55:09.639Z,0.80
2023-04-21T20:57:41.216Z,8.87
2023-04-21T21:00:10.978Z,0.80
2023-04-21T21:02:39.798Z,1.57
2023-04-21T21:05:33.427Z,0.70
2023-04-21T21:08:04.715Z,4.10
2023-04-21T21:10:36.076Z,0.60
2023-04-21T21:13:04.958Z,0.60
2023-04-21T21:15:34.040Z,0.80
2023-04-21T21:18:15.029Z,2.40
2023-04-21T21:20:46.970Z,0.63
2023-04-21T21:23:15.496Z,0.73
2023-04-21T21:25:45.570Z,1.00
2023-04-21T21:28:14.060Z,1.33
2023-04-21T21:30:42.795Z,1.80
2023-04-21T21:33:11.492Z,1.17
2023-04-21T21:35:40.066Z,1.87
2023-04-21T21:38:08.926Z,0.90
2023-04-21T21:40:41.533Z,0.57
2023-04-21T21:43:17.609Z,0.60
2023-04-21T21:45:46.161Z,0.60
2023-04-21T21:48:22.424Z,2.70
2023-04-21T21:50:51.049Z,0.70
2023-04-21T21:53:19.589Z,2.50
2023-04-21T21:55:48.403Z,0.60
2023-04-21T21:58:18.352Z,0.50
2023-04-21T22:00:51.717Z,2.77
2023-04-21T22:03:20.521Z,0.60
2023-04-21T22:05:52.970Z,0.70
2023-04-21T22:08:22.156Z,1.00
2023-04-21T22:10:50.596Z,0.80
2023-04-21T22:13:20.470Z,1.10
2023-04-21T22:15:49.090Z,0.50
2023-04-21T22:18:18.718Z,0.80
2023-04-21T22:20:47.276Z,0.50
2023-04-21T22:23:16.657Z,1.37
2023-04-21T22:25:45.391Z,0.50
2023-04-21T22:28:14.370Z,0.90
2023-04-21T22:30:45.586Z,0.70
2023-04-21T22:33:14.118Z,1.03
2023-04-21T22:35:42.719Z,0.70
2023-04-21T22:38:11.447Z,0.87
2023-04-21T22:40:40.230Z,0.80
2023-04-21T22:43:08.842Z,0.77
2023-04-21T22:45:37.287Z,1.53
2023-04-21T22:48:09.466Z,0.97
2023-04-21T22:50:38.376Z,1.33
2023-04-21T22:53:06.970Z,0.80
2023-04-21T22:55:35.637Z,1.10
2023-04-21T22:58:04.271Z,0.57
2023-04-21T23:00:32.953Z,1.43
2023-04-21T23:03:17.640Z,0.70
2023-04-21T23:05:48.205Z,0.70
2023-04-21T23:08:16.735Z,0.50
2023-04-21T23:10:45.774Z,0.90
2023-04-21T23:13:14.361Z,4.53
2023-04-21T23:15:42.934Z,0.77
2023-04-21T23:18:11.828Z,1.23
2023-04-21T23:20:40.453Z,0.80
2023-04-21T23:23:11.175Z,0.73
2023-04-21T23:25:39.865Z,0.60
2023-04-21T23:28:08.772Z,1.07
2023-04-21T23:30:37.316Z,1.27
2023-04-21T23:33:06.145Z,0.80
2023-04-21T23:35:35.002Z,1.27
2023-04-21T23:38:04.003Z,0.93
2023-04-21T23:40:34.118Z,1.50
2023-04-21T23:43:02.780Z,0.87
2023-04-21T23:45:31.213Z,0.60
2023-04-21T23:47:59.593Z,0.90
2023-04-21T23:50:28.043Z,0.87
2023-04-21T23:52:56.585Z,0.60
2023-04-21T23:55:25.106Z,1.83
2023-04-21T23:57:55.075Z,1.00
